Time;durP1;ratioP1;P1;durP2;ratioP2;P2;SDS_P1;SDS_P2;PMS_P1;PMS_P2;Temp;Humidity;BMP_temperature;BMP_pressure;BME280_temperature;BME280_humidity;BME280_pressure;Samples;Min_cycle;Max_cycle;Signal;HPM_P1;HPM_P2
2022/04/27 00:01:32;;;;;;;8.35;7.50;;;7.90;99.90;;;;;;5035736;28;20209;-93
2022/04/27 00:03:59;;;;;;;9.50;7.20;;;7.90;99.90;;;;;;5036260;28;20279;-94
2022/04/27 00:06:26;;;;;;;9.30;8.30;;;7.90;99.90;;;;;;5054416;28;20285;-93
2022/04/27 00:08:53;;;;;;;10.73;8.48;;;7.90;99.90;;;;;;5041272;28;20280;-94
2022/04/27 00:11:21;;;;;;;10.00;8.13;;;7.90;99.90;;;;;;5033963;28;20580;-93
2022/04/27 00:16:32;;;;;;;9.63;8.15;;;7.90;99.90;;;;;;5032610;28;20217;-93
2022/04/27 00:21:41;;;;;;;10.32;7.88;;;7.80;99.90;;;;;;5037297;28;20243;-93
2022/04/27 00:24:07;;;;;;;10.15;8.23;;;7.80;99.90;;;;;;5036580;28;20236;-93
2022/04/27 00:27:08;;;;;;;8.90;7.50;;;7.80;99.90;;;;;;5033632;28;20236;-94
2022/04/27 00:29:46;;;;;;;8.98;7.75;;;7.80;99.90;;;;;;5034189;28;20197;-93
2022/04/27 00:32:13;;;;;;;9.95;8.70;;;7.80;99.90;;;;;;5034250;28;20591;-94
2022/04/27 00:37:21;;;;;;;11.20;10.00;;;7.80;99.90;;;;;;5033427;28;20225;-93
2022/04/27 00:39:48;;;;;;;9.98;8.95;;;7.80;99.90;;;;;;5033577;28;20209;-93
2022/04/27 00:42:36;;;;;;;10.88;9.35;;;7.70;99.90;;;;;;5037140;28;20217;-94
2022/04/27 00:45:13;;;;;;;10.60;8.50;;;7.80;99.90;;;;;;5033478;28;20197;-94
2022/04/27 00:47:43;;;;;;;12.45;9.77;;;7.70;99.90;;;;;;5033605;28;20229;-93
2022/04/27 00:50:13;;;;;;;11.50;10.27;;;7.70;99.90;;;;;;5033189;28;20548;-94
2022/04/27 00:53:01;;;;;;;11.65;10.07;;;7.70;99.90;;;;;;5032697;28;20209;-93
2022/04/27 00:55:37;;;;;;;10.55;8.93;;;7.60;99.90;;;;;;5033793;28;20190;-94
2022/04/27 00:58:34;;;;;;;11.80;10.52;;;7.60;99.90;;;;;;5033507;28;20228;-93
2022/04/27 01:01:06;;;;;;;9.80;8.18;;;7.60;99.90;;;;;;5032442;28;20205;-93
2022/04/27 01:03:36;;;;;;;9.90;8.90;;;7.50;99.90;;;;;;5033424;28;20221;-94
2022/04/27 01:11:39;;;;;;;12.10;9.70;;;7.40;99.90;;;;;;5030512;28;20217;-94
2022/04/27 01:14:09;;;;;;;11.43;9.77;;;7.40;99.90;;;;;;5033078;28;20209;-94
2022/04/27 01:16:38;;;;;;;10.85;8.90;;;7.40;99.90;;;;;;5033154;28;20707;-93
2022/04/27 01:22:14;;;;;;;11.75;9.02;;;7.50;99.90;;;;;;5034487;28;20241;-93
2022/04/27 01:24:46;;;;;;;12.48;10.18;;;7.50;99.90;;;;;;5037193;28;20548;-93
2022/04/27 01:27:14;;;;;;;12.18;9.45;;;7.50;99.90;;;;;;5037154;28;20687;-93
2022/04/27 01:30:07;;;;;;;12.20;10.20;;;7.50;99.90;;;;;;5036890;28;20206;-94
2022/04/27 01:32:39;;;;;;;12.15;9.93;;;7.50;99.90;;;;;;5036588;28;20205;-93
2022/04/27 01:35:22;;;;;;;12.52;10.40;;;7.50;99.90;;;;;;5037025;28;20237;-92
2022/04/27 01:38:03;;;;;;;13.27;10.75;;;7.50;99.90;;;;;;5035787;28;20718;-92
2022/04/27 01:41:05;;;;;;;12.57;10.65;;;7.50;99.90;;;;;;5036573;28;20208;-93
2022/04/27 01:43:33;;;;;;;12.45;10.50;;;7.50;99.90;;;;;;5035260;28;20229;-93
2022/04/27 01:46:00;;;;;;;17.45;11.35;;;7.50;99.90;;;;;;5036511;28;20215;-93
2022/04/27 01:48:40;;;;;;;11.45;10.25;;;7.60;99.90;;;;;;5036452;28;20576;-93
2022/04/27 01:54:14;;;;;;;15.75;10.65;;;7.60;99.90;;;;;;5051807;28;20208;-94
2022/04/27 01:54:23;;;;;;;13.45;11.20;;;7.60;99.90;;;;;;5040780;28;20194;-93
2022/04/27 01:56:52;;;;;;;11.38;9.63;;;7.60;99.90;;;;;;5037766;28;20240;-93
2022/04/27 01:59:29;;;;;;;10.93;9.65;;;7.60;99.90;;;;;;5037945;28;20624;-94
2022/04/27 02:01:57;;;;;;;13.70;10.40;;;7.60;99.90;;;;;;5037137;28;20212;-92
2022/04/27 02:04:24;;;;;;;11.65;10.02;;;7.60;99.90;;;;;;5036907;28;20271;-93
2022/04/27 02:06:51;;;;;;;11.80;10.63;;;7.50;99.90;;;;;;5036309;28;20268;-93
2022/04/27 02:09:18;;;;;;;10.93;9.70;;;7.60;99.90;;;;;;5035915;28;20206;-93
2022/04/27 02:11:47;;;;;;;13.10;11.52;;;7.60;99.90;;;;;;5035698;28;20209;-93
2022/04/27 02:14:14;;;;;;;15.85;12.30;;;7.70;99.90;;;;;;5035855;28;20224;-92
2022/04/27 02:16:41;;;;;;;16.33;13.73;;;7.70;99.90;;;;;;5036046;28;20289;-93
2022/04/27 02:21:48;;;;;;;17.63;14.23;;;7.70;99.90;;;;;;5035189;28;20210;-93
2022/04/27 02:24:15;;;;;;;19.40;14.88;;;7.70;99.90;;;;;;5035842;28;20233;-93
2022/04/27 02:29:28;;;;;;;18.42;14.90;;;7.70;99.90;;;;;;5035298;28;20228;-93
2022/04/27 02:31:55;;;;;;;20.25;14.60;;;7.80;99.90;;;;;;5035324;28;20252;-93
2022/04/27 02:34:22;;;;;;;18.52;15.20;;;7.80;99.90;;;;;;5034782;28;20570;-94
2022/04/27 02:37:10;;;;;;;20.35;15.15;;;7.80;99.90;;;;;;5036103;28;20714;-93
2022/04/27 02:39:38;;;;;;;18.75;13.55;;;7.80;99.90;;;;;;5035951;28;20659;-93
2022/04/27 02:53:19;;;;;;;18.88;14.27;;;7.90;99.90;;;;;;5016120;28;20186;-94
2022/04/27 02:58:27;;;;;;;22.33;14.85;;;7.90;99.90;;;;;;5057524;28;20223;-93
2022/04/27 03:01:10;;;;;;;17.10;13.80;;;7.90;99.90;;;;;;5059769;28;20185;-93
2022/04/27 03:03:46;;;;;;;19.17;14.75;;;7.90;99.90;;;;;;5058371;28;20249;-93
2022/04/27 03:06:13;;;;;;;18.13;14.57;;;7.90;99.90;;;;;;5097124;22;20264;-92
2022/04/27 03:11:20;;;;;;;17.95;13.98;;;8.00;99.90;;;;;;5048710;28;20220;-93
2022/04/27 03:13:47;;;;;;;16.20;13.43;;;8.00;99.90;;;;;;5054616;28;20213;-93
2022/04/27 03:16:17;;;;;;;18.92;13.85;;;8.00;99.90;;;;;;5038704;28;20594;-93
2022/04/27 03:18:43;;;;;;;16.55;14.40;;;8.00;99.90;;;;;;5035832;28;20240;-93
2022/04/27 03:21:11;;;;;;;19.05;15.10;;;8.00;99.90;;;;;;5035947;28;20227;-93
2022/04/27 03:26:21;;;;;;;20.55;15.30;;;8.00;99.90;;;;;;5035785;28;20226;-94
2022/04/27 03:28:54;;;;;;;20.35;15.02;;;8.00;99.90;;;;;;5036037;28;20205;-93
2022/04/27 03:53:06;;;;;;;16.07;13.30;;;8.00;99.90;;;;;;6126990;23;466437;-91
2022/04/27 04:05:54;;;;;;;18.52;12.23;;;7.90;99.90;;;;;;6206537;23;20189;-94
2022/04/27 04:08:35;;;;;;;18.50;12.70;;;7.90;99.90;;;;;;6229950;22;20164;-93
2022/04/27 06:53:09;;;;;;;;;;;;;;;;;;;;;
2022/04/27 06:59:16;;;;;;;14.32;12.77;;;9.30;99.90;;;;;;6138870;23;20764;-94
2022/04/27 07:18:02;;;;;;;13.35;11.95;;;9.80;99.90;;;;;;6187766;23;20198;-92
2022/04/27 07:20:29;;;;;;;17.05;13.90;;;9.90;99.90;;;;;;6188691;23;20820;-94
2022/04/27 07:22:56;;;;;;;14.13;12.20;;;9.90;99.90;;;;;;6190911;23;20173;-93
2022/04/27 07:25:23;;;;;;;16.17;12.60;;;9.90;99.90;;;;;;6189974;23;20180;-93
2022/04/27 09:00:02;;;;;;;10.75;9.15;;;10.50;99.90;;;;;;6146415;23;20205;-94
2022/04/27 09:24:55;;;;;;;11.27;8.87;;;13.80;99.90;;;;;;6177692;23;20406;-94
2022/04/27 11:27:08;;;;;;;5.47;4.93;;;13.60;99.90;;;;;;6177388;23;20497;-95
2022/04/27 11:43:13;;;;;;;4.27;3.87;;;14.20;99.90;;;;;;6181254;23;20445;-96
2022/04/27 11:45:40;;;;;;;4.97;4.57;;;14.10;99.90;;;;;;6182463;23;20386;-95
2022/04/27 11:48:09;;;;;;;4.60;4.20;;;14.20;99.90;;;;;;6191564;23;20438;-96
2022/04/27 12:12:42;;;;;;;4.43;4.00;;;17.20;99.60;;;;;;6303409;22;20465;-95
2022/04/27 12:23:48;;;;;;;4.07;3.77;;;19.90;92.80;;;;;;6269029;22;20443;-95
2022/04/27 12:26:22;;;;;;;4.70;4.30;;;19.60;96.20;;;;;;6323384;22;20418;-95
2022/04/27 12:50:30;;;;;;;3.63;3.33;;;20.20;89.70;;;;;;6324798;22;20408;-95
2022/04/27 12:53:12;;;;;;;3.23;2.93;;;19.60;91.10;;;;;;6340914;22;20484;-95
2022/04/27 12:55:39;;;;;;;3.30;3.00;;;19.20;91.70;;;;;;6304600;22;20417;-93
2022/04/27 12:58:06;;;;;;;3.47;3.07;;;19.40;92.70;;;;;;6323595;22;20989;-95
2022/04/27 13:00:42;;;;;;;3.70;3.40;;;19.70;93.20;;;;;;6335036;22;20427;-93
2022/04/27 13:03:10;;;;;;;3.27;2.97;;;20.10;92.80;;;;;;6342710;22;20437;-94
2022/04/27 13:05:41;;;;;;;2.87;2.67;;;20.60;91.90;;;;;;6332065;22;20424;-94
2022/04/27 13:08:09;;;;;;;3.47;3.17;;;21.00;91.80;;;;;;6328381;22;20520;-94
2022/04/27 13:13:22;;;;;;;3.37;3.07;;;20.50;88.30;;;;;;6341069;22;20377;-94
2022/04/27 13:15:50;;;;;;;3.10;2.90;;;20.30;90.40;;;;;;6336718;22;20456;-93
2022/04/27 13:18:17;;;;;;;2.90;2.70;;;20.20;91.00;;;;;;6333625;22;20496;-93
2022/04/27 13:20:48;;;;;;;2.90;2.70;;;19.20;88.40;;;;;;6328823;22;20417;-91
2022/04/27 13:23:15;;;;;;;3.50;3.20;;;18.20;90.70;;;;;;6315975;22;20461;-91
2022/04/27 13:25:42;;;;;;;3.50;3.20;;;17.40;91.40;;;;;;6314655;22;20435;-93
2022/04/27 13:28:09;;;;;;;3.83;3.53;;;16.60;92.40;;;;;;6314449;22;20473;-94
2022/04/27 13:30:37;;;;;;;3.80;3.47;;;15.90;94.00;;;;;;6317714;22;20723;-95
2022/04/27 13:33:05;;;;;;;3.93;3.60;;;15.70;94.70;;;;;;6318946;22;20440;-95
2022/04/27 13:35:39;;;;;;;3.83;3.53;;;15.80;94.90;;;;;;6323192;22;20422;-95
2022/04/27 13:38:11;;;;;;;3.77;3.47;;;15.90;95.30;;;;;;6320716;22;20515;-95
2022/04/27 13:43:18;;;;;;;3.63;3.33;;;16.20;95.40;;;;;;6319807;22;20434;-94
2022/04/27 13:45:45;;;;;;;3.80;3.50;;;16.10;94.80;;;;;;6318073;22;20419;-93
2022/04/27 13:48:37;;;;;;;3.93;3.57;;;16.00;94.70;;;;;;6328959;22;20923;-93
2022/04/27 13:51:04;;;;;;;3.73;3.40;;;15.80;94.50;;;;;;6320824;22;20422;-94
2022/04/27 13:53:33;;;;;;;3.50;3.20;;;15.80;94.80;;;;;;6334829;22;20418;-95
2022/04/27 13:56:01;;;;;;;3.83;3.47;;;15.80;95.40;;;;;;6324084;22;20439;-93
2022/04/27 13:58:28;;;;;;;3.87;3.53;;;15.80;95.40;;;;;;6326345;22;20413;-94
2022/04/27 14:00:55;;;;;;;4.17;3.60;;;15.90;95.10;;;;;;6331541;22;20402;-92
2022/04/27 14:03:22;;;;;;;3.47;3.17;;;15.80;95.80;;;;;;6343332;22;20512;-95
2022/04/27 14:05:52;;;;;;;3.60;3.30;;;15.70;95.50;;;;;;6332536;22;20468;-94
2022/04/27 14:08:18;;;;;;;3.33;3.03;;;15.60;95.60;;;;;;6333151;22;20408;-93
2022/04/27 14:10:48;;;;;;;3.30;3.00;;;15.50;95.90;;;;;;6325598;22;20445;-92
2022/04/27 14:13:14;;;;;;;3.43;3.13;;;15.40;96.00;;;;;;6324758;22;20409;-93
2022/04/27 14:18:09;;;;;;;4.27;3.97;;;15.30;96.30;;;;;;6323167;22;20456;-92
2022/04/27 14:18:29;;;;;;;3.23;3.00;;;15.30;96.90;;;;;;6331713;22;20456;-93
2022/04/27 14:20:56;;;;;;;4.40;4.00;;;15.10;97.50;;;;;;6327120;22;20402;-92
2022/04/27 14:23:27;;;;;;;3.60;3.30;;;15.10;97.40;;;;;;6320171;22;20452;-93
2022/04/27 14:28:31;;;;;;;3.93;3.63;;;15.10;98.00;;;;;;6257184;22;20450;-91
2022/04/27 14:30:58;;;;;;;4.47;4.03;;;15.30;97.30;;;;;;6308361;22;20390;-92
2022/04/27 14:33:25;;;;;;;4.30;3.90;;;15.50;97.30;;;;;;6286905;22;20493;-93
2022/04/27 14:35:52;;;;;;;4.33;3.60;;;15.60;97.40;;;;;;6300682;22;20433;-93
2022/04/27 14:38:20;;;;;;;6.40;4.07;;;15.70;97.40;;;;;;6267038;23;20445;-92
2022/04/27 14:40:48;;;;;;;4.80;4.40;;;15.80;96.80;;;;;;6254518;23;20495;-92
2022/04/27 14:43:17;;;;;;;3.97;3.67;;;16.00;97.20;;;;;;6262861;22;20567;-95
2022/04/27 15:45:18;;;;;;;3.90;3.60;;;18.20;92.40;;;;;;6243058;22;20572;-67
2022/04/27 15:47:46;;;;;;;4.30;4.00;;;18.20;93.90;;;;;;6257958;22;21005;-68
2022/04/27 15:50:13;;;;;;;3.87;3.57;;;18.30;93.40;;;;;;6263340;22;20430;-68
2022/04/27 15:52:40;;;;;;;3.70;3.40;;;18.20;93.50;;;;;;6262619;22;20450;-67
2022/04/27 15:55:10;;;;;;;4.23;3.83;;;17.90;93.60;;;;;;6263464;22;20843;-67
2022/04/27 15:57:36;;;;;;;3.73;3.43;;;17.70;93.90;;;;;;6265776;22;21176;-68
2022/04/27 16:00:05;;;;;;;4.43;4.03;;;17.20;94.50;;;;;;6263706;22;20902;-68
2022/04/27 16:02:33;;;;;;;4.10;3.80;;;16.80;95.00;;;;;;6263927;22;20986;-68
2022/04/27 16:05:00;;;;;;;4.27;3.87;;;16.50;95.70;;;;;;6264293;22;20442;-67
2022/04/27 16:07:26;;;;;;;4.10;3.80;;;16.30;95.90;;;;;;6265511;22;20430;-69
2022/04/27 16:09:57;;;;;;;4.10;3.80;;;16.40;96.10;;;;;;6266266;22;20422;-68
2022/04/27 16:12:23;;;;;;;3.63;3.33;;;16.70;95.80;;;;;;6266352;22;20449;-68
2022/04/27 16:14:50;;;;;;;3.80;3.50;;;16.90;95.80;;;;;;6267535;22;20434;-67
2022/04/27 16:17:17;;;;;;;5.27;4.23;;;17.10;95.30;;;;;;6265966;22;20428;-68
2022/04/27 16:19:46;;;;;;;4.67;4.27;;;17.20;95.70;;;;;;6265045;22;20449;-67
2022/04/27 16:24:57;;;;;;;4.20;3.80;;;17.20;94.80;;;;;;6265867;22;20506;-69
2022/04/27 16:27:24;;;;;;;4.70;4.20;;;17.20;95.00;;;;;;6268217;22;20432;-69
2022/04/27 16:29:52;;;;;;;4.20;3.80;;;17.10;93.70;;;;;;6266951;22;20430;-68
2022/04/27 16:32:18;;;;;;;3.67;3.37;;;17.10;94.00;;;;;;6266584;22;20442;-68
2022/04/27 16:34:46;;;;;;;3.90;3.50;;;17.00;93.90;;;;;;6267372;22;20946;-68
2022/04/27 16:37:13;;;;;;;4.23;3.90;;;17.00;94.40;;;;;;6267036;22;20946;-68
2022/04/27 16:39:40;;;;;;;4.50;4.10;;;16.80;94.60;;;;;;6267967;22;20429;-68
2022/04/27 16:42:07;;;;;;;4.10;3.80;;;16.70;94.60;;;;;;6270623;22;20978;-68
2022/04/27 16:44:34;;;;;;;4.27;3.97;;;16.60;94.40;;;;;;6268761;22;20449;-69
2022/04/27 16:47:00;;;;;;;4.20;3.90;;;16.50;94.20;;;;;;6267738;22;20430;-68
2022/04/27 16:49:27;;;;;;;4.77;4.30;;;16.40;94.50;;;;;;6264545;22;20432;-68
2022/04/27 16:51:56;;;;;;;4.20;3.90;;;16.40;93.80;;;;;;6266509;22;20517;-68
2022/04/27 16:54:23;;;;;;;4.10;3.80;;;16.40;94.60;;;;;;6266697;22;20445;-68
2022/04/27 16:56:50;;;;;;;5.50;3.83;;;16.40;95.20;;;;;;6264299;22;20428;-67
2022/04/27 16:59:18;;;;;;;4.17;3.87;;;16.40;94.60;;;;;;6266955;22;20497;-68
2022/04/27 17:01:45;;;;;;;4.73;4.07;;;16.30;94.90;;;;;;6266205;22;21018;-69
2022/04/27 17:04:11;;;;;;;4.13;3.73;;;16.30;94.40;;;;;;6265264;22;20500;-70
2022/04/27 17:06:38;;;;;;;4.37;3.97;;;16.20;94.70;;;;;;6266406;22;20845;-69
2022/04/27 17:09:06;;;;;;;4.10;3.70;;;16.20;94.90;;;;;;6266133;22;20532;-69
2022/04/27 17:11:36;;;;;;;4.20;3.80;;;16.00;94.70;;;;;;6265791;22;20483;-70
2022/04/27 17:14:03;;;;;;;3.93;3.57;;;15.80;94.80;;;;;;6266704;22;20446;-69
2022/04/27 17:16:31;;;;;;;4.33;3.93;;;15.70;95.40;;;;;;6265071;22;20517;-70
2022/04/27 17:18:59;;;;;;;4.73;4.23;;;15.60;94.50;;;;;;6266666;22;20426;-70
2022/04/27 17:21:26;;;;;;;4.00;3.70;;;15.30;94.40;;;;;;6264951;22;20831;-69
2022/04/27 17:23:53;;;;;;;4.03;3.73;;;15.10;94.60;;;;;;6264905;22;20438;-70
2022/04/27 17:29:05;;;;;;;5.57;4.03;;;14.70;95.70;;;;;;6266308;22;20848;-69
2022/04/27 17:31:32;;;;;;;4.03;3.73;;;14.50;95.90;;;;;;6265718;22;20486;-69
2022/04/27 17:33:59;;;;;;;4.27;3.73;;;14.40;96.30;;;;;;6265634;22;20450;-69
2022/04/27 17:36:25;;;;;;;3.53;3.23;;;14.30;96.00;;;;;;6265740;22;20433;-69
2022/04/27 17:38:52;;;;;;;4.23;3.83;;;14.20;96.40;;;;;;6265100;22;20454;-69
2022/04/27 17:41:20;;;;;;;3.80;3.50;;;14.20;96.70;;;;;;6266976;22;20427;-69
2022/04/27 17:43:48;;;;;;;3.90;3.60;;;14.20;96.50;;;;;;6264645;22;20988;-69
2022/04/27 17:46:15;;;;;;;3.97;3.67;;;14.10;96.40;;;;;;6264880;22;20426;-69
2022/04/27 17:48:43;;;;;;;4.30;4.00;;;14.00;96.60;;;;;;6264851;22;20422;-69
2022/04/27 17:51:11;;;;;;;3.70;3.40;;;14.00;97.10;;;;;;6265971;22;20944;-69
2022/04/27 17:53:39;;;;;;;3.80;3.50;;;14.00;97.50;;;;;;6266132;22;20450;-69
2022/04/27 17:56:06;;;;;;;4.47;4.07;;;13.90;98.40;;;;;;6263717;22;20942;-69
2022/04/27 17:58:34;;;;;;;4.27;3.87;;;13.90;98.30;;;;;;6263861;22;20427;-68
2022/04/27 18:01:01;;;;;;;5.43;4.50;;;13.80;99.10;;;;;;6258849;22;20433;-69
2022/04/27 18:03:28;;;;;;;3.70;3.40;;;13.70;99.00;;;;;;6263301;22;20758;-68
2022/04/27 18:05:55;;;;;;;4.07;3.67;;;13.70;99.40;;;;;;6267311;22;20419;-69
2022/04/27 18:08:21;;;;;;;4.13;3.83;;;13.50;99.40;;;;;;6267291;22;20423;-69
2022/04/27 18:10:49;;;;;;;4.30;3.90;;;13.40;99.90;;;;;;6267470;22;20433;-69
2022/04/27 18:13:16;;;;;;;4.53;3.87;;;13.30;99.90;;;;;;6267306;22;20446;-69
2022/04/27 18:15:47;;;;;;;4.10;3.70;;;13.10;99.90;;;;;;6267229;22;20429;-69
2022/04/27 18:18:15;;;;;;;3.60;3.30;;;12.90;99.90;;;;;;6266765;22;20422;-69
2022/04/27 18:20:42;;;;;;;4.10;3.80;;;12.80;99.90;;;;;;6267340;22;20422;-68
2022/04/27 18:23:09;;;;;;;4.57;4.20;;;12.70;99.90;;;;;;6267094;22;20431;-69
2022/04/27 18:25:35;;;;;;;5.30;4.50;;;12.60;99.90;;;;;;6266379;22;20438;-69
2022/04/27 18:28:03;;;;;;;7.22;4.10;;;12.40;99.90;;;;;;6266867;22;21185;-69
2022/04/27 18:30:30;;;;;;;4.43;4.03;;;12.30;99.90;;;;;;6267318;22;20218;-68
2022/04/27 18:33:01;;;;;;;4.20;3.80;;;12.20;99.90;;;;;;6267276;22;20445;-69
2022/04/27 18:35:32;;;;;;;5.23;4.27;;;12.00;99.90;;;;;;6267417;22;20755;-69
2022/04/27 18:37:59;;;;;;;4.57;4.18;;;11.90;99.90;;;;;;6268347;22;20422;-69
2022/04/27 18:40:26;;;;;;;4.10;3.70;;;11.70;99.90;;;;;;6267447;22;20179;-68
2022/04/27 18:42:53;;;;;;;4.78;4.38;;;11.60;99.90;;;;;;6267102;22;20184;-68
2022/04/27 18:51:05;;;;;;;5.05;4.65;;;11.10;99.90;;;;;;6172230;23;20535;-68
2022/04/27 18:53:33;;;;;;;4.20;3.90;;;10.90;99.90;;;;;;6225551;22;20196;-68
2022/04/27 18:56:00;;;;;;;5.10;4.13;;;10.80;99.90;;;;;;6267914;22;20183;-68
2022/04/27 18:58:27;;;;;;;5.25;4.75;;;10.60;99.90;;;;;;6267416;22;20199;-68
2022/04/27 19:00:54;;;;;;;4.72;4.32;;;10.50;99.90;;;;;;6267997;22;20199;-68
2022/04/27 19:03:22;;;;;;;4.15;3.85;;;10.40;99.90;;;;;;6267665;22;20176;-69
2022/04/27 19:05:49;;;;;;;4.15;3.75;;;10.30;99.90;;;;;;6267326;22;20671;-67
2022/04/27 19:08:16;;;;;;;4.38;3.97;;;10.20;99.90;;;;;;6267028;22;20211;-69
2022/04/27 19:10:45;;;;;;;4.45;4.05;;;10.10;99.90;;;;;;6266924;22;20234;-70
2022/04/27 19:13:12;;;;;;;4.97;4.47;;;10.10;99.90;;;;;;6267566;22;21000;-69
2022/04/27 19:15:39;;;;;;;4.90;4.50;;;10.00;99.90;;;;;;6266904;22;20184;-69
2022/04/27 19:18:06;;;;;;;4.93;4.43;;;9.90;99.90;;;;;;6266453;22;20180;-68
2022/04/27 19:20:34;;;;;;;5.53;4.85;;;9.80;99.90;;;;;;6266578;22;20251;-68
2022/04/27 19:23:02;;;;;;;6.65;6.00;;;9.70;99.90;;;;;;6266660;22;20191;-67
2022/04/27 19:25:29;;;;;;;7.20;6.00;;;9.60;99.90;;;;;;6266695;22;20211;-68
2022/04/27 19:27:56;;;;;;;9.23;6.40;;;9.50;99.90;;;;;;6266736;22;20180;-68
2022/04/27 19:30:23;;;;;;;7.18;6.10;;;9.50;99.90;;;;;;6266560;22;20183;-69
2022/04/27 19:32:50;;;;;;;7.90;5.82;;;9.40;99.90;;;;;;6268630;22;20184;-69
2022/04/27 19:35:18;;;;;;;5.32;4.57;;;9.40;99.90;;;;;;6268419;22;20203;-69
2022/04/27 19:37:46;;;;;;;5.97;5.18;;;9.30;99.90;;;;;;6269414;22;20186;-69
2022/04/27 19:40:13;;;;;;;5.88;5.20;;;9.30;99.90;;;;;;6269243;22;20180;-68
2022/04/27 19:42:41;;;;;;;7.38;5.60;;;9.20;99.90;;;;;;6269557;22;20176;-68
2022/04/27 19:45:08;;;;;;;13.15;8.73;;;9.10;99.90;;;;;;6269219;22;20195;-69
2022/04/27 19:47:36;;;;;;;36.42;16.70;;;9.00;99.90;;;;;;6267321;22;20179;-69
2022/04/27 19:50:04;;;;;;;44.35;18.88;;;8.90;99.90;;;;;;6268242;22;20187;-68
2022/04/27 19:55:16;;;;;;;30.83;12.52;;;8.80;99.90;;;;;;6268566;22;20306;-69
2022/04/27 19:57:43;;;;;;;32.10;12.15;;;8.80;99.90;;;;;;6268766;22;20172;-69
2022/04/27 20:00:12;;;;;;;31.73;13.85;;;8.80;99.90;;;;;;6267637;22;20187;-69
2022/04/27 20:02:40;;;;;;;49.05;19.58;;;8.70;99.90;;;;;;6268595;22;20635;-69
2022/04/27 20:05:09;;;;;;;86.63;27.63;;;8.70;99.90;;;;;;6269117;22;20569;-69
2022/04/27 20:07:36;;;;;;;69.88;22.38;;;8.60;99.90;;;;;;6269191;22;20184;-69
2022/04/27 20:10:05;;;;;;;72.22;22.52;;;8.50;99.90;;;;;;6268340;22;20514;-69
2022/04/27 20:12:33;;;;;;;63.35;23.90;;;8.50;99.90;;;;;;6268249;22;20176;-68
2022/04/27 20:15:00;;;;;;;71.72;25.45;;;8.50;99.90;;;;;;6271207;22;20203;-69
2022/04/27 20:17:28;;;;;;;60.08;23.02;;;8.40;99.90;;;;;;6270754;22;20175;-69
2022/04/27 20:19:55;;;;;;;41.83;19.83;;;8.40;99.90;;;;;;6270963;22;20210;-68
2022/04/27 20:22:22;;;;;;;45.55;18.90;;;8.30;99.90;;;;;;6271612;22;20608;-69
2022/04/27 20:24:49;;;;;;;44.60;19.08;;;8.20;99.90;;;;;;6269692;22;20195;-69
2022/04/27 20:27:16;;;;;;;53.85;23.05;;;8.20;99.90;;;;;;6271499;22;20195;-69
2022/04/27 20:29:44;;;;;;;33.03;16.60;;;8.10;99.90;;;;;;6270357;22;20176;-69
2022/04/27 20:32:11;;;;;;;32.67;16.45;;;8.10;99.90;;;;;;6270628;22;20503;-69
2022/04/27 20:34:39;;;;;;;29.88;14.02;;;8.00;99.90;;;;;;6270890;22;20196;-69
2022/04/27 20:37:06;;;;;;;21.40;12.48;;;8.00;99.90;;;;;;6270569;22;20684;-69
2022/04/27 20:39:33;;;;;;;28.73;13.50;;;8.00;99.90;;;;;;6270255;22;20183;-69
2022/04/27 20:42:00;;;;;;;25.63;12.52;;;7.90;99.90;;;;;;6271254;22;20180;-69
2022/04/27 20:44:27;;;;;;;49.17;19.40;;;7.90;99.90;;;;;;6270461;22;20208;-69
2022/04/27 20:46:55;;;;;;;49.03;19.73;;;7.80;99.90;;;;;;6270353;22;20166;-71
2022/04/27 20:49:22;;;;;;;35.15;15.70;;;7.80;99.90;;;;;;6273100;22;20203;-68
2022/04/27 20:52:12;;;;;;;24.92;12.65;;;7.70;99.90;;;;;;6274361;22;20191;-68
2022/04/27 20:54:42;;;;;;;18.98;12.48;;;7.60;99.90;;;;;;6274041;22;20196;-68
2022/04/27 20:57:09;;;;;;;15.65;10.00;;;7.60;99.90;;;;;;6274259;22;20203;-68
2022/04/27 20:59:36;;;;;;;14.25;10.00;;;7.60;99.90;;;;;;6273013;22;20171;-68
2022/04/27 21:02:04;;;;;;;13.68;9.43;;;7.50;99.90;;;;;;6273603;22;20198;-68
2022/04/27 21:04:31;;;;;;;12.38;9.18;;;7.50;99.90;;;;;;6273940;22;20191;-68
2022/04/27 21:06:58;;;;;;;11.75;8.93;;;7.40;99.90;;;;;;6274342;22;20204;-68
2022/04/27 21:09:25;;;;;;;19.92;12.75;;;7.30;99.90;;;;;;6272672;22;20176;-68
2022/04/27 21:11:51;;;;;;;17.92;11.93;;;7.30;99.90;;;;;;6273719;22;20204;-68
2022/04/27 21:14:18;;;;;;;12.73;9.98;;;7.30;99.90;;;;;;6273855;22;20200;-68
2022/04/27 21:16:45;;;;;;;12.38;9.40;;;7.30;99.90;;;;;;6273384;22;20176;-68
2022/04/27 21:19:13;;;;;;;13.88;9.95;;;7.30;99.90;;;;;;6273573;22;20180;-68
2022/04/27 21:21:41;;;;;;;12.55;9.40;;;7.20;99.90;;;;;;6273403;22;20237;-68
2022/04/27 21:24:08;;;;;;;13.52;8.88;;;7.20;99.90;;;;;;6273001;22;20212;-68
2022/04/27 21:26:35;;;;;;;13.80;9.23;;;7.20;99.90;;;;;;6273854;22;20172;-68
2022/04/27 21:29:03;;;;;;;14.35;8.40;;;7.10;99.90;;;;;;6272928;22;20509;-68
2022/04/27 21:31:30;;;;;;;15.55;9.73;;;7.10;99.90;;;;;;6273423;22;20172;-68
2022/04/27 21:33:57;;;;;;;25.40;14.15;;;7.10;99.90;;;;;;6271113;22;20227;-68
2022/04/27 21:36:25;;;;;;;30.23;14.60;;;7.00;99.90;;;;;;6269314;22;20180;-68
2022/04/27 21:38:51;;;;;;;29.85;13.65;;;7.00;99.90;;;;;;6269118;22;20859;-68
2022/04/27 21:41:19;;;;;;;29.05;12.45;;;6.90;99.90;;;;;;6269845;22;20180;-68
2022/04/27 21:43:46;;;;;;;29.15;12.73;;;6.90;99.90;;;;;;6270028;22;20192;-68
2022/04/27 21:46:13;;;;;;;35.65;16.05;;;6.90;99.90;;;;;;6268814;22;20195;-68
2022/04/27 21:48:40;;;;;;;28.58;11.65;;;6.80;99.90;;;;;;6268481;22;20183;-68
2022/04/27 21:51:07;;;;;;;19.23;11.50;;;6.80;99.90;;;;;;6270066;22;20172;-68
2022/04/27 21:53:35;;;;;;;22.00;10.80;;;6.80;99.90;;;;;;6268830;22;20200;-68
2022/04/27 21:56:01;;;;;;;20.77;10.55;;;6.70;99.90;;;;;;6270017;22;20172;-68
2022/04/27 21:58:28;;;;;;;21.95;11.18;;;6.70;99.90;;;;;;6269015;22;20176;-68
2022/04/27 22:01:08;;;;;;;17.23;10.15;;;6.70;99.90;;;;;;6269081;22;20175;-68
2022/04/27 22:06:25;;;;;;;20.95;11.20;;;6.70;99.90;;;;;;6269455;22;20162;-68
2022/04/27 22:08:55;;;;;;;12.70;8.90;;;6.60;99.90;;;;;;6269298;22;20191;-68
2022/04/27 22:11:23;;;;;;;10.85;7.65;;;6.60;99.90;;;;;;6269751;22;20180;-68
2022/04/27 22:13:51;;;;;;;10.52;8.13;;;6.60;99.90;;;;;;6268203;22;20222;-68
2022/04/27 22:16:18;;;;;;;12.95;7.88;;;6.50;99.90;;;;;;6268524;22;20184;-68
2022/04/27 22:18:45;;;;;;;15.10;9.75;;;6.50;99.90;;;;;;6268217;22;20175;-68
2022/04/27 22:21:12;;;;;;;15.23;10.52;;;6.50;99.90;;;;;;6268471;22;20187;-68
2022/04/27 22:24:22;;;;;;;14.40;9.23;;;6.50;99.90;;;;;;6267960;22;20203;-67
2022/04/27 22:26:50;;;;;;;14.32;9.05;;;6.40;99.90;;;;;;6263698;22;20162;-68
2022/04/27 22:29:16;;;;;;;12.55;8.95;;;6.40;99.90;;;;;;6267501;22;20180;-68
2022/04/27 22:31:44;;;;;;;12.93;8.82;;;6.40;99.90;;;;;;6266501;22;20187;-67
2022/04/27 22:34:10;;;;;;;9.13;7.82;;;6.40;99.90;;;;;;6268068;22;20253;-67
2022/04/27 22:36:37;;;;;;;9.90;7.53;;;6.30;99.90;;;;;;6268306;22;20176;-68
2022/04/27 22:39:04;;;;;;;7.93;6.80;;;6.30;99.90;;;;;;6267715;22;20176;-68
2022/04/27 22:41:31;;;;;;;9.98;8.00;;;6.30;99.90;;;;;;6268919;22;20175;-68
2022/04/27 22:43:59;;;;;;;9.57;7.68;;;6.30;99.90;;;;;;6268159;22;20203;-68
2022/04/27 22:46:25;;;;;;;8.73;7.57;;;6.20;99.90;;;;;;6268266;22;20671;-68
2022/04/27 22:48:52;;;;;;;7.55;6.85;;;6.20;99.90;;;;;;6268463;22;20198;-68
2022/04/27 22:51:19;;;;;;;10.40;7.18;;;6.20;99.90;;;;;;6268036;22;20221;-68
2022/04/27 22:53:46;;;;;;;7.78;6.95;;;6.20;99.90;;;;;;6268505;22;20222;-68
2022/04/27 22:56:16;;;;;;;7.13;6.40;;;6.10;99.90;;;;;;6268310;22;20196;-68
2022/04/27 22:58:44;;;;;;;7.22;6.53;;;6.10;99.90;;;;;;6267520;22;20164;-68
2022/04/27 23:01:12;;;;;;;8.32;7.45;;;6.10;99.90;;;;;;6268496;22;20175;-68
2022/04/27 23:03:39;;;;;;;7.93;7.10;;;6.00;99.90;;;;;;6268725;22;20196;-68
2022/04/27 23:06:05;;;;;;;7.43;6.70;;;6.00;99.90;;;;;;6268207;22;20171;-68
2022/04/27 23:11:17;;;;;;;8.65;6.80;;;6.00;99.90;;;;;;6267976;22;20179;-68
2022/04/27 23:13:47;;;;;;;7.18;6.47;;;6.00;99.90;;;;;;6268002;22;20200;-68
2022/04/27 23:16:17;;;;;;;8.25;6.80;;;6.00;99.90;;;;;;6268393;22;20220;-68
2022/04/27 23:18:45;;;;;;;8.10;7.30;;;6.00;99.90;;;;;;6268345;22;20160;-67
2022/04/27 23:21:13;;;;;;;7.70;6.90;;;5.90;99.90;;;;;;6268010;22;20180;-68
2022/04/27 23:23:40;;;;;;;7.05;6.35;;;5.90;99.90;;;;;;6268712;22;20253;-68
2022/04/27 23:26:07;;;;;;;7.85;6.88;;;5.80;99.90;;;;;;6267543;22;20785;-68
2022/04/27 23:28:35;;;;;;;9.63;7.28;;;5.80;99.90;;;;;;6267278;22;20636;-68
2022/04/27 23:31:02;;;;;;;8.27;7.10;;;5.70;99.90;;;;;;6268431;22;20179;-68
2022/04/27 23:33:30;;;;;;;8.65;7.20;;;5.70;99.90;;;;;;6268286;22;20175;-68
2022/04/27 23:35:57;;;;;;;9.05;7.75;;;5.70;99.90;;;;;;6267950;22;20195;-67
2022/04/27 23:38:25;;;;;;;8.18;7.32;;;5.70;99.90;;;;;;6267290;22;20186;-68